Time;durP1;ratioP1;P1;durP2;ratioP2;P2;SDS_P1;SDS_P2;PMS_P1;PMS_P2;Temp;Humidity;BMP_temperature;BMP_pressure;BME280_temperature;BME280_humidity;BME280_pressure;Samples;Min_cycle;Max_cycle;Signal;HPM_P1;HPM_P2
2021/12/05 00:21:41;;;;;;;4.93;2.60;;;;;;;8.99;100.00;96478.75;4914348;28;20517;-58
2021/12/05 00:24:15;;;;;;;5.15;3.40;;;;;;;7.88;100.00;96474.59;4922532;29;20035;-57
2021/12/05 00:26:46;;;;;;;9.07;4.60;;;;;;;7.88;100.00;96484.97;4913311;29;20044;-55
2021/12/05 00:29:25;;;;;;;7.00;3.65;;;;;;;7.86;100.00;96497.16;4916939;29;20102;-57
2021/12/05 00:58:07;;;;;;;4.72;2.80;;;;;;;8.83;100.00;96548.16;4917093;29;20498;-56
2021/12/05 01:11:12;;;;;;;7.57;2.88;;;;;;;8.24;100.00;96585.16;4918178;29;20036;-56
2021/12/05 01:14:10;;;;;;;6.25;3.20;;;;;;;8.18;100.00;96593.28;4918463;29;20244;-55
2021/12/05 01:16:38;;;;;;;6.20;3.47;;;;;;;8.00;100.00;96591.69;4924962;29;20596;-57
2021/12/05 01:19:07;;;;;;;5.13;3.05;;;;;;;8.00;100.00;96604.66;4917693;29;20486;-55
2021/12/05 01:21:34;;;;;;;5.93;3.40;;;;;;;8.40;100.00;96592.09;4916297;29;20044;-58
2021/12/05 01:24:12;;;;;;;6.32;3.40;;;;;;;9.09;100.00;96597.84;4916570;29;20115;-57
2021/12/05 01:26:47;;;;;;;4.55;2.97;;;;;;;7.90;100.00;96599.09;4915764;28;20048;-55
2021/12/05 01:53:52;;;;;;;5.70;2.90;;;;;;;7.28;100.00;96601.44;4917446;29;20043;-57
2021/12/05 02:31:30;;;;;;;12.05;3.63;;;;;;;5.04;100.00;96602.94;4916558;29;20536;-56
2021/12/05 02:42:06;;;;;;;11.00;3.95;;;;;;;5.12;100.00;96611.19;4916755;29;20474;-56
2021/12/05 02:44:32;;;;;;;8.43;3.97;;;;;;;4.94;100.00;96617.13;4915865;29;20143;-56
2021/12/05 02:47:04;;;;;;;12.35;3.83;;;;;;;5.10;100.00;96618.19;4917714;29;20367;-57
2021/12/05 02:49:32;;;;;;;7.47;3.53;;;;;;;5.87;100.00;96627.00;4914905;29;20032;-56
2021/12/05 02:52:05;;;;;;;9.30;3.50;;;;;;;5.56;100.00;96612.81;4912945;28;20036;-56
2021/12/05 02:54:33;;;;;;;;;;;;;;;5.24;100.00;96621.94;4918360;29;20099;-56
2021/12/05 02:56:59;;;;;;;5.95;2.85;;;;;;;5.40;100.00;96620.38;4917192;28;19923;-56
2021/12/05 02:59:39;;;;;;;10.35;3.65;;;;;;;5.60;100.00;96610.00;4916834;29;20429;-56
2021/12/05 03:02:11;;;;;;;7.50;3.45;;;;;;;5.29;100.00;96607.91;4913897;28;20048;-56
2021/12/05 03:04:40;;;;;;;9.30;3.83;;;;;;;5.29;100.00;96607.06;4913628;29;20024;-57
2021/12/05 03:07:08;;;;;;;9.15;3.28;;;;;;;5.75;100.00;96610.25;4916565;29;20513;-56
2021/12/05 03:09:34;;;;;;;5.63;2.83;;;;;;;6.84;100.00;96601.88;4913692;29;20106;-57
2021/12/05 03:12:01;;;;;;;9.43;3.90;;;;;;;5.34;100.00;96599.97;4913750;28;20127;-56
2021/12/05 03:14:26;;;;;;;8.48;3.90;;;;;;;5.65;100.00;96607.25;4914369;29;20024;-57
2021/12/05 03:16:52;;;;;;;8.98;3.85;;;;;;;5.26;100.00;96607.22;4913110;29;20051;-55
2021/12/05 03:19:18;;;;;;;7.38;3.42;;;;;;;5.02;100.00;96599.56;4914280;29;20031;-58
2021/12/05 03:21:46;;;;;;;11.43;4.07;;;;;;;5.53;100.00;96613.81;4914352;29;20516;-56
2021/12/05 03:24:13;;;;;;;7.63;3.35;;;;;;;5.11;100.00;96608.66;4914370;29;20379;-58
2021/12/05 03:26:43;;;;;;;7.53;3.63;;;;;;;5.45;100.00;96613.28;4914744;29;20498;-57
2021/12/05 03:29:11;;;;;;;8.85;3.50;;;;;;;4.66;100.00;96602.72;4915567;29;20034;-56
2021/12/05 03:31:37;;;;;;;9.68;3.88;;;;;;;4.80;100.00;96605.59;4914563;29;20036;-56
2021/12/05 03:34:05;;;;;;;10.43;3.83;;;;;;;4.37;100.00;96606.44;4912023;29;20107;-55
2021/12/05 03:36:31;;;;;;;9.82;3.70;;;;;;;4.30;100.00;96605.88;4916124;29;20036;-56
2021/12/05 03:38:57;;;;;;;8.63;3.83;;;;;;;4.36;100.00;96605.63;4912825;29;20035;-55
2021/12/05 03:41:23;;;;;;;8.63;3.83;;;;;;;4.13;100.00;96603.06;4915473;28;20433;-57
2021/12/05 03:43:52;;;;;;;7.90;3.92;;;;;;;4.13;100.00;96608.22;4913868;29;20160;-56
2021/12/05 03:46:18;;;;;;;12.10;4.47;;;;;;;4.11;100.00;96605.69;4914439;28;20107;-59
2021/12/05 03:48:47;;;;;;;12.98;4.40;;;;;;;3.84;100.00;96607.56;4912726;29;20027;-56
2021/12/05 03:51:15;;;;;;;13.00;4.07;;;;;;;3.71;100.00;96608.91;4913127;29;20458;-59
2021/12/05 03:53:40;;;;;;;9.73;4.28;;;;;;;3.45;100.00;96603.75;4913377;29;20043;-57
2021/12/05 03:56:08;;;;;;;11.02;4.25;;;;;;;3.27;100.00;96607.84;4913624;29;20036;-56
2021/12/05 03:58:36;;;;;;;14.85;4.32;;;;;;;3.24;100.00;96613.09;4913571;29;20477;-58
2021/12/05 04:01:03;;;;;;;13.23;4.45;;;;;;;3.10;100.00;96620.44;4912385;28;20044;-56
2021/12/05 04:03:31;;;;;;;12.80;4.45;;;;;;;2.81;100.00;96635.13;4914768;29;20035;-58
2021/12/05 04:05:58;;;;;;;17.60;4.88;;;;;;;2.69;100.00;96627.78;4916030;28;20044;-56
2021/12/05 04:08:25;;;;;;;14.20;4.57;;;;;;;2.86;100.00;96622.09;4914237;29;20035;-56
2021/12/05 04:10:56;;;;;;;16.02;4.85;;;;;;;3.08;100.00;96617.91;4914239;28;20040;-57
2021/12/05 04:13:22;;;;;;;15.95;4.80;;;;;;;3.06;100.00;96624.00;4912136;29;20059;-58
2021/12/05 04:15:50;;;;;;;7.88;3.35;;;;;;;3.07;100.00;96631.69;4913899;28;20849;-56
2021/12/05 04:18:17;;;;;;;9.05;4.03;;;;;;;3.03;100.00;96639.56;4914379;29;20055;-56
2021/12/05 04:20:42;;;;;;;12.80;4.13;;;;;;;3.16;100.00;96634.84;4913451;28;20051;-57
2021/12/05 04:23:08;;;;;;;9.60;4.25;;;;;;;3.21;100.00;96628.66;4915818;29;20032;-56
2021/12/05 04:25:36;;;;;;;7.35;3.75;;;;;;;3.21;100.00;96638.94;4911302;29;20554;-58
2021/12/05 04:28:03;;;;;;;10.13;4.40;;;;;;;2.95;100.00;96644.13;4922354;29;20036;-58
2021/12/05 04:30:29;;;;;;;8.35;3.63;;;;;;;3.24;100.00;96644.00;4915310;28;20489;-57
2021/12/05 04:32:54;;;;;;;36.25;5.20;;;;;;;3.22;100.00;96640.66;4916549;29;20558;-56
2021/12/05 04:35:20;;;;;;;12.15;4.05;;;;;;;3.25;100.00;96645.72;4917945;28;20087;-56
2021/12/05 04:37:45;;;;;;;10.98;4.03;;;;;;;3.35;100.00;96645.41;4919422;29;20034;-59
2021/12/05 04:40:12;;;;;;;8.38;3.80;;;;;;;3.52;100.00;96648.22;4917193;28;20035;-59
2021/12/05 04:42:37;;;;;;;10.23;3.78;;;;;;;3.51;100.00;96651.72;4916612;29;20030;-56
2021/12/05 04:45:06;;;;;;;15.88;4.03;;;;;;;3.36;100.00;96654.78;4918361;29;20036;-56
2021/12/05 04:47:32;;;;;;;11.98;4.20;;;;;;;3.37;100.00;96659.06;4916869;29;20028;-57
2021/12/05 04:49:57;;;;;;;13.23;4.20;;;;;;;3.22;100.00;96655.28;4917418;29;20034;-58
2021/12/05 04:52:23;;;;;;;12.57;3.78;;;;;;;3.37;100.00;96664.22;4917188;29;20048;-56
2021/12/05 04:54:49;;;;;;;13.10;4.30;;;;;;;3.37;100.00;96661.66;4916044;29;20617;-56
2021/12/05 04:57:14;;;;;;;11.57;4.13;;;;;;;3.43;100.00;96664.84;4917177;29;20068;-58
2021/12/05 04:59:46;;;;;;;8.70;3.45;;;;;;;3.63;100.00;96671.06;4916456;29;20078;-56
2021/12/05 05:02:11;;;;;;;10.00;3.75;;;;;;;3.92;100.00;96667.47;4915404;29;20132;-59
2021/12/05 05:04:42;;;;;;;14.13;4.47;;;;;;;4.17;100.00;96671.72;4918656;29;20146;-57
2021/12/05 05:07:15;;;;;;;214.73;12.38;;;;;;;4.35;100.00;96677.94;4916682;29;20063;-57
2021/12/05 05:09:41;;;;;;;227.23;13.80;;;;;;;4.79;100.00;96678.00;4917786;29;20082;-56
2021/12/05 05:12:07;;;;;;;27.70;3.85;;;;;;;4.18;100.00;96673.41;4915462;28;20051;-56
2021/12/05 05:14:32;;;;;;;12.50;3.50;;;;;;;5.59;100.00;96678.19;4916322;29;20024;-56
2021/12/05 05:16:58;;;;;;;211.00;11.32;;;;;;;4.56;100.00;96668.56;4916518;28;20043;-58
2021/12/05 05:19:29;;;;;;;14.82;3.22;;;;;;;4.33;100.00;96670.25;4917949;29;20040;-57
2021/12/05 05:22:27;;;;;;;13.50;3.93;;;;;;;5.08;100.00;96671.66;4916336;29;20529;-59
2021/12/05 05:50:36;;;;;;;11.40;3.08;;;;;;;3.98;100.00;96677.56;4916278;28;20051;-57
2021/12/05 05:53:02;;;;;;;11.63;3.70;;;;;;;4.30;100.00;96675.56;4915770;29;20039;-56
2021/12/05 05:55:28;;;;;;;11.18;3.97;;;;;;;4.15;100.00;96676.09;4916487;28;20044;-56
2021/12/05 06:00:34;;;;;;;11.35;3.20;;;;;;;3.96;100.00;96676.78;4917303;28;20262;-57
2021/12/05 06:03:44;;;;;;;9.35;3.00;;;;;;;3.75;100.00;96672.38;4916565;29;20035;-55
2021/12/05 06:06:00;;;;;;;10.23;3.08;;;;;;;3.79;100.00;96672.22;4917013;28;20043;-55
2021/12/05 06:08:28;;;;;;;12.40;3.55;;;;;;;3.61;100.00;96672.84;4916218;29;20135;-56
2021/12/05 06:10:57;;;;;;;10.95;3.70;;;;;;;3.59;100.00;96670.31;4916242;29;20040;-55
2021/12/05 06:13:24;;;;;;;8.77;3.58;;;;;;;3.47;100.00;96673.31;4915550;29;20103;-57
2021/12/05 06:15:50;;;;;;;11.73;3.50;;;;;;;3.58;100.00;96668.63;4914640;28;20036;-57
2021/12/05 06:18:17;;;;;;;17.00;3.90;;;;;;;3.62;100.00;96667.66;4916304;29;20038;-56
2021/12/05 06:20:43;;;;;;;10.35;3.63;;;;;;;3.40;100.00;96674.41;4916180;28;20144;-56
2021/12/05 06:23:10;;;;;;;12.70;3.60;;;;;;;3.51;100.00;96674.91;4916627;29;20051;-56
2021/12/05 06:25:39;;;;;;;8.57;3.58;;;;;;;3.24;100.00;96680.09;4915444;29;20036;-56
2021/12/05 06:28:10;;;;;;;11.85;3.50;;;;;;;3.35;100.00;96674.59;4915495;29;20445;-58
2021/12/05 06:30:53;;;;;;;14.68;4.00;;;;;;;3.13;100.00;96673.63;4922564;29;20035;-57
2021/12/05 06:46:57;;;;;;;15.75;6.20;;;;;;;2.71;100.00;96690.38;4914446;29;20426;-59
2021/12/05 06:49:22;;;;;;;16.35;7.70;;;;;;;2.70;100.00;96688.66;4915664;29;20608;-56
2021/12/05 06:51:48;;;;;;;20.35;8.82;;;;;;;2.59;100.00;96685.56;4921007;29;20044;-55
2021/12/05 06:54:14;;;;;;;15.93;7.45;;;;;;;2.67;100.00;96699.06;4915833;29;20599;-57
2021/12/05 06:56:39;;;;;;;26.80;8.07;;;;;;;2.53;100.00;96696.06;4913599;29;20048;-56
2021/12/05 06:59:05;;;;;;;19.35;7.13;;;;;;;2.49;100.00;96706.44;4918568;29;20128;-56
2021/12/05 07:01:30;;;;;;;19.75;6.22;;;;;;;2.40;100.00;96701.56;4915460;29;20124;-56
2021/12/05 07:04:01;;;;;;;19.83;6.07;;;;;;;2.32;100.00;96698.41;4914674;29;20039;-57
2021/12/05 07:06:29;;;;;;;16.02;5.10;;;;;;;2.09;100.00;96706.75;4922053;29;20050;-56
2021/12/05 07:09:00;;;;;;;14.40;4.95;;;;;;;2.42;100.00;96714.41;4913326;29;20142;-57
2021/12/05 07:11:36;;;;;;;10.18;4.57;;;;;;;2.39;100.00;96709.34;4915802;28;20040;-55
2021/12/05 07:16:46;;;;;;;12.85;5.45;;;;;;;2.39;100.00;96717.91;4915144;29;20036;-57
2021/12/05 07:21:56;;;;;;;14.82;5.90;;;;;;;2.34;100.00;96734.38;4915952;29;20048;-56
2021/12/05 07:40:18;;;;;;;10.98;5.40;;;;;;;2.25;100.00;96738.03;4912847;29;20046;-56
2021/12/05 07:40:46;;;;;;;14.18;4.95;;;;;;;2.98;100.00;96759.91;4915634;29;20051;-58
2021/12/05 07:43:15;;;;;;;20.08;6.22;;;;;;;2.51;100.00;96761.28;4912757;29;20040;-56
2021/12/05 07:45:47;;;;;;;19.88;6.95;;;;;;;3.05;100.00;96761.41;4913937;29;20063;-58
2021/12/05 07:48:19;;;;;;;18.58;7.13;;;;;;;2.82;100.00;96770.69;4915088;29;20128;-58
2021/12/05 07:50:58;;;;;;;16.77;8.02;;;;;;;2.44;100.00;96775.22;4913781;29;20409;-57
2021/12/05 07:53:33;;;;;;;18.55;7.47;;;;;;;2.72;100.00;96784.75;4912219;29;20131;-55
2021/12/05 07:56:07;;;;;;;15.35;7.47;;;;;;;2.76;100.00;96780.31;4915710;29;20043;-57
2021/12/05 08:15:24;;;;;;;17.05;6.65;;;;;;;2.48;100.00;96787.13;4917226;29;20046;-59
2021/12/05 08:17:39;;;;;;;19.40;7.07;;;;;;;2.62;100.00;96785.88;4915832;29;20105;-56
2021/12/05 08:20:09;;;;;;;17.38;6.38;;;;;;;2.86;100.00;96782.59;4917649;29;20506;-58
2021/12/05 08:22:34;;;;;;;15.20;6.45;;;;;;;2.73;100.00;96781.28;4916165;29;20044;-56
2021/12/05 08:25:08;;;;;;;16.08;7.40;;;;;;;2.58;100.00;96781.72;4916132;29;20209;-56
2021/12/05 08:27:34;;;;;;;14.43;6.30;;;;;;;2.68;100.00;96777.97;4916673;29;20053;-57
2021/12/05 08:30:07;;;;;;;17.25;7.07;;;;;;;2.43;100.00;96772.72;4916249;29;20395;-59
2021/12/05 08:43:26;;;;;;;25.77;10.40;;;;;;;3.20;100.00;96775.59;4918454;29;20036;-56
2021/12/05 09:24:09;;;;;;;250.77;23.60;;;;;;;4.99;100.00;96760.72;4917018;29;20036;-57
2021/12/05 10:10:12;;;;;;;9.27;3.70;;;;;;;5.60;100.00;96748.84;4915262;29;20738;-56
2021/12/05 10:12:57;;;;;;;11.10;4.18;;;;;;;5.80;98.17;96748.03;4914637;29;20056;-58
2021/12/05 10:15:35;;;;;;;9.70;4.95;;;;;;;5.74;99.91;96745.72;4913265;29;20036;-58
2021/12/05 10:26:40;;;;;;;8.18;3.33;;;;;;;5.85;98.95;96738.34;4912344;29;20620;-56
2021/12/05 10:38:08;;;;;;;8.90;2.92;;;;;;;5.96;95.10;96741.34;4915033;29;20083;-57
2021/12/05 10:40:45;;;;;;;7.53;2.72;;;;;;;6.67;93.04;96746.00;4916221;29;20043;-56
2021/12/05 10:43:18;;;;;;;7.07;2.80;;;;;;;6.06;92.73;96749.53;4915499;29;20032;-57
2021/12/05 10:45:48;;;;;;;;;;;;;;;6.04;93.42;96751.34;4915172;29;20032;-57
2021/12/05 10:48:41;;;;;;;9.02;2.95;;;;;;;6.37;94.08;96759.41;4914491;29;19911;-57
2021/12/05 10:51:09;;;;;;;7.90;3.00;;;;;;;6.03;94.97;96756.59;4917288;28;20418;-56
2021/12/05 10:53:39;;;;;;;7.35;3.00;;;;;;;6.13;93.99;96760.47;4916626;29;20032;-57
2021/12/05 10:56:07;;;;;;;6.13;3.00;;;;;;;6.03;95.34;96757.47;4917179;29;20048;-59
2021/12/05 10:58:43;;;;;;;6.97;3.00;;;;;;;6.01;96.40;96751.50;4915706;29;20382;-58
2021/12/05 11:01:16;;;;;;;7.05;3.20;;;;;;;5.68;96.70;96744.22;4915726;28;20048;-56
2021/12/05 11:03:43;;;;;;;7.65;2.92;;;;;;;5.13;97.44;96751.63;4916222;29;20543;-56
2021/12/05 11:06:34;;;;;;;6.78;2.78;;;;;;;5.05;99.93;96744.16;4916815;28;20047;-56
2021/12/05 11:09:04;;;;;;;9.25;2.80;;;;;;;5.16;100.00;96748.91;4917037;29;20048;-57
2021/12/05 11:11:31;;;;;;;5.22;2.20;;;;;;;5.67;95.68;96746.88;4923988;28;20509;-57
2021/12/05 11:13:58;;;;;;;12.07;3.65;;;;;;;6.37;92.79;96754.22;4914660;29;20355;-57
2021/12/05 11:16:38;;;;;;;7.88;2.78;;;;;;;6.37;90.48;96749.03;4912145;29;20044;-56
2021/12/05 11:19:27;;;;;;;6.20;2.97;;;;;;;6.26;91.17;96751.28;4913466;29;20024;-56
2021/12/05 11:22:03;;;;;;;10.48;3.17;;;;;;;6.49;95.18;96759.78;4912846;28;20056;-55
2021/12/05 11:24:40;;;;;;;8.20;3.47;;;;;;;6.95;87.82;96760.28;4912556;29;20054;-56
2021/12/05 11:27:10;;;;;;;9.20;3.08;;;;;;;7.19;88.34;96758.31;4915219;28;20099;-54
2021/12/05 11:30:03;;;;;;;6.50;2.88;;;;;;;6.90;96.06;96757.06;4912333;29;20043;-56
2021/12/05 11:32:36;;;;;;;7.15;3.15;;;;;;;6.22;86.81;96760.09;4912720;28;20040;-55
2021/12/05 11:35:22;;;;;;;10.07;3.35;;;;;;;6.27;91.21;96760.72;4912217;29;20032;-57
2021/12/05 11:38:02;;;;;;;7.53;2.22;;;;;;;6.57;89.97;96755.09;4918460;29;20048;-54
2021/12/05 11:40:52;;;;;;;8.18;2.53;;;;;;;6.39;94.66;96751.56;4912601;28;20493;-56
2021/12/05 11:43:29;;;;;;;7.45;2.75;;;;;;;6.25;94.11;96754.78;4913340;29;20027;-55
2021/12/05 11:46:00;;;;;;;8.18;2.80;;;;;;;6.72;87.56;96744.03;4911777;28;20074;-56
2021/12/05 11:48:34;;;;;;;8.68;2.47;;;;;;;6.36;94.17;96742.19;4919433;29;20024;-55
2021/12/05 11:51:02;;;;;;;7.00;2.95;;;;;;;7.40;91.50;96738.28;4914745;28;20040;-55
2021/12/05 11:53:41;;;;;;;6.53;2.55;;;;;;;7.14;88.18;96737.75;4912239;29;20028;-57
2021/12/05 11:56:09;;;;;;;9.02;3.20;;;;;;;7.37;93.20;96741.03;4911630;28;20099;-60
2021/12/05 11:58:34;;;;;;;8.05;3.50;;;;;;;7.55;100.00;96734.09;4902084;29;20487;-53
2021/12/05 12:01:13;;;;;;;8.80;2.88;;;;;;;7.21;100.00;96745.28;4912082;28;20047;-53
2021/12/05 12:03:40;;;;;;;7.43;2.80;;;;;;;7.33;99.19;96735.16;4912874;29;20024;-55
2021/12/05 12:06:06;;;;;;;6.32;3.15;;;;;;;7.39;92.51;96741.78;4913746;28;20035;-54
2021/12/05 12:08:32;;;;;;;7.82;3.17;;;;;;;7.45;90.62;96738.91;4909637;29;20176;-56
2021/12/05 12:11:00;;;;;;;6.03;2.22;;;;;;;7.31;83.12;96738.72;4920707;28;20134;-53
2021/12/05 12:13:29;;;;;;;8.02;2.42;;;;;;;7.13;80.65;96735.25;4910857;29;20028;-54
2021/12/05 12:15:59;;;;;;;6.72;2.42;;;;;;;7.43;84.42;96740.72;4912763;28;20040;-55
2021/12/05 12:18:32;;;;;;;7.25;2.65;;;;;;;7.64;89.94;96738.00;4910304;29;20033;-55
2021/12/05 12:21:20;;;;;;;9.57;2.95;;;;;;;7.78;94.00;96740.75;4915164;28;20043;-55
2021/12/05 12:23:54;;;;;;;11.68;4.45;;;;;;;7.56;90.39;96740.13;4911515;29;20050;-54
2021/12/05 12:26:20;;;;;;;5.28;2.80;;;;;;;7.82;94.43;96742.25;4912437;28;20040;-55
2021/12/05 12:28:46;;;;;;;7.03;2.25;;;;;;;6.93;86.44;96750.00;4909197;29;20036;-56
2021/12/05 12:31:28;;;;;;;4.47;2.30;;;;;;;6.90;80.38;96757.06;4911087;28;20075;-54
2021/12/05 12:34:02;;;;;;;4.85;2.20;;;;;;;6.99;81.67;96759.25;4911734;29;20445;-55
2021/12/05 12:36:40;;;;;;;7.00;2.60;;;;;;;7.20;80.25;96753.94;4914009;28;20090;-58
2021/12/05 12:39:27;;;;;;;9.65;4.00;;;;;;;7.19;77.22;96747.09;4914014;29;20054;-55
2021/12/05 12:42:13;;;;;;;6.88;3.70;;;;;;;6.79;81.02;96748.94;4910626;28;20048;-55
2021/12/05 12:45:10;;;;;;;6.32;2.30;;;;;;;7.10;78.28;96749.19;4912561;29;20039;-55
2021/12/05 12:48:04;;;;;;;7.93;3.10;;;;;;;6.63;79.58;96751.38;4911420;29;20035;-56
2021/12/05 12:50:35;;;;;;;6.82;2.50;;;;;;;6.54;78.66;96757.81;4911313;28;20044;-56
2021/12/05 12:53:18;;;;;;;7.25;2.85;;;;;;;6.49;79.79;96764.97;4913406;29;20028;-57
2021/12/05 12:55:51;;;;;;;4.78;2.40;;;;;;;7.05;78.08;96761.53;4915898;29;20032;-56
2021/12/05 12:58:49;;;;;;;8.48;2.28;;;;;;;6.57;79.06;96761.13;4916092;29;20032;-56
2021/12/05 13:01:19;;;;;;;6.22;2.40;;;;;;;6.68;84.29;96758.03;4916618;28;20537;-57
2021/12/05 13:04:30;;;;;;;7.57;2.80;;;;;;;6.65;80.88;96763.34;4917866;28;20438;-57
2021/12/05 13:10:08;;;;;;;4.90;2.15;;;;;;;6.57;77.26;96762.88;4917484;29;20457;-56
2021/12/05 13:12:40;;;;;;;5.25;2.50;;;;;;;6.88;76.28;96764.91;4915039;29;20501;-57
2021/12/05 13:15:18;;;;;;;5.53;2.10;;;;;;;7.03;74.57;96772.91;4912360;29;20036;-58
2021/12/05 13:17:50;;;;;;;6.72;2.63;;;;;;;6.54;78.01;96770.78;4915992;29;20039;-56
2021/12/05 13:20:20;;;;;;;8.05;2.53;;;;;;;6.48;79.84;96765.88;4913418;29;20028;-58
2021/12/05 13:23:12;;;;;;;7.35;2.50;;;;;;;6.64;79.25;96773.81;4908882;29;20020;-58
2021/12/05 13:25:56;;;;;;;6.53;2.67;;;;;;;6.47;79.20;96770.22;4911649;28;20590;-57
2021/12/05 13:28:37;;;;;;;6.63;2.90;;;;;;;6.63;80.04;96770.34;4914999;29;20040;-59
2021/12/05 13:31:28;;;;;;;7.68;2.50;;;;;;;6.44;80.37;96765.16;4916024;29;20036;-57
2021/12/05 13:34:15;;;;;;;8.43;2.70;;;;;;;6.26;80.66;96771.97;4914967;29;20035;-58
2021/12/05 13:36:43;;;;;;;5.57;2.50;;;;;;;6.34;81.45;96775.09;4913203;28;20035;-59
2021/12/05 13:39:41;;;;;;;7.75;2.85;;;;;;;6.15;81.76;96779.38;4914635;29;20036;-56
2021/12/05 14:35:07;;;;;;;6.10;2.10;;;;;;;5.77;78.57;96808.53;4912929;29;20167;-57
2021/12/05 14:37:33;;;;;;;7.60;2.60;;;;;;;5.65;79.10;96806.41;4913026;29;20044;-56
2021/12/05 14:40:11;;;;;;;7.75;2.90;;;;;;;5.66;80.06;96812.44;4912541;29;20039;-56
2021/12/05 14:42:40;;;;;;;7.82;3.03;;;;;;;5.45;80.94;96808.97;4909695;29;20550;-56
2021/12/05 14:45:22;;;;;;;9.95;3.22;;;;;;;5.42;81.49;96809.91;4913108;28;20099;-61
2021/12/05 14:47:48;;;;;;;11.43;4.07;;;;;;;5.46;82.36;96808.91;4912705;29;20032;-58
2021/12/05 14:50:21;;;;;;;11.07;3.47;;;;;;;5.26;82.01;96814.03;4911646;28;20063;-57
2021/12/05 14:52:50;;;;;;;9.55;4.53;;;;;;;5.18;83.72;96822.91;4912079;29;20527;-58
2021/12/05 14:55:18;;;;;;;9.90;3.95;;;;;;;5.34;84.17;96832.66;4910230;29;20036;-57
2021/12/05 14:57:47;;;;;;;10.00;4.07;;;;;;;5.30;85.44;96829.34;4910210;29;20544;-58
2021/12/05 15:00:24;;;;;;;7.70;3.28;;;;;;;5.37;91.58;96822.22;4910281;29;20158;-56
2021/12/05 15:03:09;;;;;;;8.63;3.40;;;;;;;5.68;92.71;96831.31;4911176;29;20033;-57
2021/12/05 15:05:37;;;;;;;8.52;4.05;;;;;;;5.80;95.41;96828.25;4911407;29;20118;-58
2021/12/05 15:08:08;;;;;;;9.73;3.60;;;;;;;5.85;90.73;96830.66;4911179;29;20102;-57
2021/12/05 15:10:34;;;;;;;7.72;4.25;;;;;;;5.88;87.34;96833.09;4911693;28;20044;-57
2021/12/05 15:13:00;;;;;;;7.93;3.53;;;;;;;5.66;95.61;96833.13;4911496;29;20120;-57
2021/12/05 15:15:26;;;;;;;10.15;3.88;;;;;;;5.91;91.34;96839.00;4909235;29;20435;-56
2021/12/05 15:17:53;;;;;;;9.57;3.65;;;;;;;5.83;89.34;96838.47;4908523;29;20182;-58
2021/12/05 15:20:22;;;;;;;12.65;3.95;;;;;;;5.78;88.56;96845.56;4910799;28;20040;-57
2021/12/05 15:22:52;;;;;;;9.43;4.00;;;;;;;5.86;89.44;96851.28;4913406;29;20097;-57
2021/12/05 15:25:21;;;;;;;10.73;4.25;;;;;;;5.95;90.09;96850.94;4910529;28;20587;-57
2021/12/05 15:27:47;;;;;;;8.77;4.10;;;;;;;5.55;93.27;96847.34;4911094;29;20162;-57
2021/12/05 15:30:20;;;;;;;8.23;3.80;;;;;;;5.50;89.53;96859.59;4907561;29;20067;-58
2021/12/05 15:32:51;;;;;;;10.55;3.80;;;;;;;5.26;89.78;96860.56;4910330;29;20062;-58
2021/12/05 15:35:18;;;;;;;9.65;3.45;;;;;;;5.56;90.96;96855.94;4910219;29;20110;-57
2021/12/05 15:37:57;;;;;;;9.65;3.80;;;;;;;5.57;91.22;96868.81;4910851;29;20495;-58
2021/12/05 15:40:25;;;;;;;9.05;3.40;;;;;;;5.63;94.93;96874.66;4910465;28;20032;-59
2021/12/05 15:42:51;;;;;;;8.82;3.10;;;;;;;5.56;91.08;96868.88;4913098;29;20028;-57
2021/12/05 15:45:19;;;;;;;7.13;3.08;;;;;;;5.55;90.96;96878.38;4912000;28;20042;-57
2021/12/05 15:47:46;;;;;;;6.55;3.28;;;;;;;5.29;92.77;96870.75;4911791;29;20054;-56
2021/12/05 15:50:28;;;;;;;9.32;3.60;;;;;;;5.08;92.78;96868.09;4910792;29;20015;-57
2021/12/05 15:52:55;;;;;;;;;;;;;;;5.28;92.35;96869.94;4912231;29;20036;-56
2021/12/05 15:55:31;;;;;;;9.48;4.03;;;;;;;4.96;92.20;96873.72;4918192;29;19950;-56
2021/12/05 15:58:02;;;;;;;8.45;3.58;;;;;;;5.31;94.60;96877.59;4927057;29;20027;-58
2021/12/05 16:00:31;;;;;;;8.38;3.50;;;;;;;5.34;97.64;96880.03;4909743;29;20336;-56
2021/12/05 16:03:01;;;;;;;8.88;3.92;;;;;;;4.80;92.93;96879.44;4911402;29;20036;-57
2021/12/05 16:05:26;;;;;;;12.52;4.43;;;;;;;4.67;92.65;96878.19;4909231;29;20502;-56
2021/12/05 16:07:51;;;;;;;9.52;3.92;;;;;;;4.48;94.32;96882.31;4910177;29;20032;-58
2021/12/05 16:10:24;;;;;;;8.43;3.78;;;;;;;4.39;95.17;96879.16;4911054;28;20020;-58
2021/12/05 16:12:52;;;;;;;10.27;3.50;;;;;;;4.54;93.17;96887.25;4911355;29;20067;-58
2021/12/05 16:15:20;;;;;;;8.55;3.58;;;;;;;4.49;93.95;96884.84;4910540;29;20111;-56
2021/12/05 16:17:59;;;;;;;7.55;3.60;;;;;;;4.55;94.41;96883.78;4910757;29;20035;-54
2021/12/05 16:20:27;;;;;;;8.30;3.60;;;;;;;4.33;95.11;96879.34;4925394;28;20024;-55
2021/12/05 16:23:10;;;;;;;11.02;4.20;;;;;;;4.34;95.73;96881.03;4911737;29;20087;-56
2021/12/05 16:25:56;;;;;;;10.75;4.50;;;;;;;4.55;93.39;96883.78;4907641;29;20039;-58
2021/12/05 16:28:26;;;;;;;10.63;5.15;;;;;;;4.49;94.66;96878.84;4913186;29;20537;-60
2021/12/05 16:30:59;;;;;;;15.02;5.90;;;;;;;4.66;94.17;96880.84;4914571;29;20036;-58
2021/12/05 16:33:25;;;;;;;13.65;6.70;;;;;;;4.33;96.05;96884.50;4916114;29;20051;-56
2021/12/05 16:35:51;;;;;;;14.43;6.53;;;;;;;4.42;95.30;96891.09;4917707;28;20112;-58
2021/12/05 16:38:33;;;;;;;16.65;6.45;;;;;;;4.42;97.09;96894.53;4915413;29;20055;-57
2021/12/05 16:41:06;;;;;;;13.50;5.60;;;;;;;4.56;100.00;96888.06;4915817;28;20107;-57
2021/12/05 16:43:33;;;;;;;14.90;7.03;;;;;;;4.59;95.48;96890.53;4914476;29;20055;-57
2021/12/05 16:46:13;;;;;;;14.05;7.13;;;;;;;4.66;95.39;96897.16;4914593;28;20118;-57
2021/12/05 16:48:41;;;;;;;17.73;8.13;;;;;;;4.46;95.15;96904.75;4917408;29;20036;-56
2021/12/05 16:51:24;;;;;;;15.23;7.43;;;;;;;4.51;96.10;96902.88;4912734;29;20103;-57
2021/12/05 16:53:51;;;;;;;;;;;;;;;4.28;97.05;96907.03;4923207;29;20036;-56
2021/12/05 16:56:46;;;;;;;17.67;9.68;;;;;;;4.31;97.18;96904.38;4922629;29;20010;-57
2021/12/05 16:59:32;;;;;;;14.05;5.85;;;;;;;3.46;100.00;96901.06;4914217;29;20569;-58
2021/12/05 17:02:39;;;;;;;13.63;6.28;;;;;;;3.86;100.00;96903.25;4912275;29;20052;-57
2021/12/05 17:05:22;;;;;;;13.35;6.18;;;;;;;3.81;100.00;96912.03;4914695;28;20031;-55
2021/12/05 17:07:55;;;;;;;14.20;6.13;;;;;;;3.45;100.00;96909.69;4913761;29;20024;-57
2021/12/05 17:10:20;;;;;;;13.65;6.53;;;;;;;3.76;100.00;96913.91;4914143;28;20023;-57
2021/12/05 17:12:49;;;;;;;15.50;7.00;;;;;;;4.04;100.00;96912.16;4912892;29;20027;-57
2021/12/05 17:15:19;;;;;;;13.85;6.57;;;;;;;3.90;100.00;96924.63;4914947;29;20058;-56
2021/12/05 17:17:46;;;;;;;19.52;7.70;;;;;;;4.14;97.32;96919.59;4915071;29;20103;-56
2021/12/05 17:20:24;;;;;;;16.95;7.35;;;;;;;4.01;97.27;96935.47;4914139;28;20056;-56
2021/12/05 17:22:57;;;;;;;15.20;7.63;;;;;;;3.92;97.12;96940.91;4915235;29;20054;-57
2021/12/05 17:25:28;;;;;;;18.75;7.38;;;;;;;3.83;97.99;96946.34;4914904;28;20182;-55
2021/12/05 17:28:06;;;;;;;13.15;6.82;;;;;;;3.59;100.00;96948.78;4914109;29;20785;-55
2021/12/05 17:30:32;;;;;;;17.45;8.52;;;;;;;3.81;98.28;96942.97;4913129;29;20597;-57
2021/12/05 17:32:58;;;;;;;21.48;10.82;;;;;;;3.69;99.01;96944.19;4911346;29;20028;-56
2021/12/05 17:35:28;;;;;;;16.40;7.68;;;;;;;3.28;100.00;96952.25;4920604;28;20450;-57
2021/12/05 17:37:54;;;;;;;19.65;8.45;;;;;;;3.48;100.00;96956.00;4913657;29;20076;-57
2021/12/05 17:40:20;;;;;;;15.95;8.00;;;;;;;3.69;100.00;96957.06;4914155;28;20040;-57
2021/12/05 17:42:46;;;;;;;26.45;9.00;;;;;;;3.63;100.00;96957.28;4912967;29;20020;-56
2021/12/05 17:45:14;;;;;;;15.63;8.35;;;;;;;3.34;100.00;96958.97;4912966;29;20087;-56
2021/12/05 17:47:40;;;;;;;18.92;8.38;;;;;;;3.34;100.00;96963.28;4914539;29;20032;-56
2021/12/05 17:50:20;;;;;;;19.08;9.02;;;;;;;3.36;100.00;96962.34;4912013;29;20028;-60
2021/12/05 17:52:47;;;;;;;17.17;8.45;;;;;;;3.28;100.00;96965.13;4915748;29;20059;-55
2021/12/05 17:55:29;;;;;;;18.17;8.93;;;;;;;3.66;100.00;96964.94;4912176;29;20462;-57
2021/12/05 17:58:06;;;;;;;17.23;8.70;;;;;;;3.60;100.00;96981.44;4914102;29;20032;-57
2021/12/05 18:00:44;;;;;;;18.20;8.70;;;;;;;3.52;100.00;96978.22;4912620;29;20048;-60
2021/12/05 18:03:12;;;;;;;20.02;8.73;;;;;;;3.59;100.00;96979.72;4914211;29;20078;-57
2021/12/05 18:05:46;;;;;;;22.60;9.02;;;;;;;3.85;100.00;96985.84;4913480;29;20043;-58